N684WQ EDAZ-EDAV
Flight info
| Callsign | N684WQ |
|---|---|
| Flight time | 0h 36m |
| Altitude | 2000 |
| Route | VFR |
| Aircraft | P28A/L-VGD/A |
Departure
| Time | 2026-04-22 18:02 |
|---|---|
| Airport | Schönhagen Airfield (EDAZ) |
Arrival
| Time | 2026-04-22 18:39 |
|---|---|
| Airport | Eberswalde-Finow Airfield (EDAV) |
| Time | Latitude | Longitude | Altitude | Speed | Heading |
|---|---|---|---|---|---|
| 2026-04-22 17:54 | 52.20408 | 13.15236 | 140 ft | 0 kts | 252° |
| 2026-04-22 17:57 | 52.20407 | 13.15228 | 140 ft | 3 kts | 255° |
| 2026-04-22 17:57 | 52.20400 | 13.15170 | 140 ft | 8 kts | 238° |
| 2026-04-22 17:57 | 52.20348 | 13.15196 | 139 ft | 11 kts | 90° |
| 2026-04-22 17:58 | 52.20365 | 13.15311 | 140 ft | 11 kts | 73° |
| 2026-04-22 17:58 | 52.20384 | 13.15441 | 140 ft | 13 kts | 77° |
| 2026-04-22 17:58 | 52.20408 | 13.15598 | 137 ft | 16 kts | 75° |
| 2026-04-22 17:58 | 52.20438 | 13.15792 | 135 ft | 17 kts | 77° |
| 2026-04-22 17:59 | 52.20465 | 13.15964 | 138 ft | 14 kts | 75° |
| 2026-04-22 17:59 | 52.20491 | 13.16124 | 138 ft | 16 kts | 76° |
| 2026-04-22 17:59 | 52.20518 | 13.16302 | 138 ft | 16 kts | 76° |
| 2026-04-22 17:59 | 52.20547 | 13.16488 | 140 ft | 17 kts | 75° |
| 2026-04-22 18:00 | 52.20541 | 13.16572 | 142 ft | 9 kts | 124° |
| 2026-04-22 18:00 | 52.20530 | 13.16596 | 141 ft | 0 kts | 122° |
| 2026-04-22 18:01 | 52.20530 | 13.16597 | 141 ft | 1 kts | 123° |
| 2026-04-22 18:01 | 52.20501 | 13.16637 | 141 ft | 11 kts | 185° |
| 2026-04-22 18:01 | 52.20464 | 13.16482 | 140 ft | 26 kts | 256° |
| 2026-04-22 18:01 | 52.20377 | 13.15913 | 136 ft | 73 kts | 258° |
| 2026-04-22 18:02 | 52.20221 | 13.15096 | 304 ft | 77 kts | 257° |
| 2026-04-22 18:02 | 52.20044 | 13.14283 | 518 ft | 75 kts | 256° |
| 2026-04-22 18:02 | 52.19876 | 13.13491 | 735 ft | 73 kts | 256° |
| 2026-04-22 18:02 | 52.19688 | 13.12737 | 966 ft | 77 kts | 241° |
| 2026-04-22 18:03 | 52.19125 | 13.12670 | 1130 ft | 99 kts | 151° |
| 2026-04-22 18:03 | 52.18518 | 13.13106 | 1330 ft | 96 kts | 186° |
| 2026-04-22 18:03 | 52.17958 | 13.12740 | 1539 ft | 83 kts | 236° |
| 2026-04-22 18:03 | 52.17632 | 13.12014 | 1762 ft | 78 kts | 249° |
| 2026-04-22 18:04 | 52.17328 | 13.11250 | 1970 ft | 81 kts | 250° |
| 2026-04-22 18:04 | 52.17007 | 13.10454 | 2086 ft | 95 kts | 250° |
| 2026-04-22 18:04 | 52.16657 | 13.09454 | 2067 ft | 102 kts | 252° |
| 2026-04-22 18:04 | 52.16560 | 13.08386 | 2076 ft | 93 kts | 281° |
| 2026-04-22 18:05 | 52.16566 | 13.07337 | 2067 ft | 93 kts | 277° |
| 2026-04-22 18:05 | 52.16557 | 13.06288 | 2069 ft | 92 kts | 278° |
| 2026-04-22 18:05 | 52.16547 | 13.05223 | 2071 ft | 99 kts | 277° |
| 2026-04-22 18:05 | 52.16531 | 13.04062 | 2075 ft | 104 kts | 277° |
| 2026-04-22 18:06 | 52.16514 | 13.02890 | 2070 ft | 103 kts | 277° |
| 2026-04-22 18:06 | 52.16497 | 13.01734 | 2068 ft | 100 kts | 277° |
| 2026-04-22 18:06 | 52.16482 | 13.00611 | 2066 ft | 98 kts | 277° |
| 2026-04-22 18:06 | 52.16461 | 12.99513 | 2062 ft | 96 kts | 277° |
| 2026-04-22 18:07 | 52.16446 | 12.98430 | 2062 ft | 95 kts | 277° |
| 2026-04-22 18:07 | 52.16432 | 12.97367 | 2064 ft | 95 kts | 278° |
| 2026-04-22 18:07 | 52.16609 | 12.96379 | 2052 ft | 90 kts | 311° |
| 2026-04-22 18:07 | 52.17145 | 12.95908 | 2054 ft | 90 kts | 347° |
| 2026-04-22 18:08 | 52.17780 | 12.96062 | 2054 ft | 95 kts | 9° |
| 2026-04-22 18:08 | 52.18414 | 12.96322 | 2051 ft | 93 kts | 6° |
| 2026-04-22 18:08 | 52.19039 | 12.96568 | 2051 ft | 92 kts | 6° |
| 2026-04-22 18:08 | 52.19660 | 12.96805 | 2053 ft | 91 kts | 6° |
| 2026-04-22 18:09 | 52.20281 | 12.97038 | 2053 ft | 92 kts | 6° |
| 2026-04-22 18:09 | 52.20905 | 12.97272 | 2053 ft | 92 kts | 6° |
| 2026-04-22 18:09 | 52.21521 | 12.97500 | 2056 ft | 93 kts | 6° |
| 2026-04-22 18:09 | 52.22155 | 12.97736 | 2055 ft | 94 kts | 6° |
| 2026-04-22 18:10 | 52.22791 | 12.97973 | 2054 ft | 93 kts | 6° |
| 2026-04-22 18:10 | 52.23423 | 12.98207 | 2053 ft | 93 kts | 6° |
| 2026-04-22 18:10 | 52.24057 | 12.98442 | 2054 ft | 93 kts | 6° |
| 2026-04-22 18:10 | 52.24686 | 12.98677 | 2055 ft | 92 kts | 6° |
| 2026-04-22 18:11 | 52.25311 | 12.98907 | 2054 ft | 92 kts | 6° |
| 2026-04-22 18:11 | 52.25938 | 12.99140 | 2055 ft | 93 kts | 6° |
| 2026-04-22 18:11 | 52.26568 | 12.99374 | 2054 ft | 93 kts | 6° |
| 2026-04-22 18:11 | 52.27198 | 12.99607 | 2055 ft | 93 kts | 6° |
| 2026-04-22 18:12 | 52.27829 | 12.99842 | 2057 ft | 93 kts | 6° |
| 2026-04-22 18:12 | 52.28457 | 13.00074 | 2059 ft | 92 kts | 7° |
| 2026-04-22 18:12 | 52.28872 | 13.00229 | 2060 ft | 93 kts | 6° |
| 2026-04-22 18:12 | 52.29709 | 13.00540 | 2069 ft | 94 kts | 6° |
| 2026-04-22 18:13 | 52.30343 | 13.00773 | 2069 ft | 93 kts | 7° |
| 2026-04-22 18:13 | 52.30980 | 13.01012 | 2069 ft | 94 kts | 6° |
| 2026-04-22 18:13 | 52.31622 | 13.01253 | 2067 ft | 95 kts | 6° |
| 2026-04-22 18:13 | 52.32262 | 13.01490 | 2064 ft | 94 kts | 5° |
| 2026-04-22 18:14 | 52.32901 | 13.01728 | 2066 ft | 94 kts | 6° |
| 2026-04-22 18:14 | 52.33500 | 13.02204 | 2054 ft | 100 kts | 29° |
| 2026-04-22 18:14 | 52.34050 | 13.02884 | 2054 ft | 98 kts | 26° |
| 2026-04-22 18:14 | 52.34605 | 13.03534 | 2059 ft | 98 kts | 27° |
| 2026-04-22 18:15 | 52.35163 | 13.04191 | 2062 ft | 99 kts | 26° |
| 2026-04-22 18:15 | 52.35729 | 13.04850 | 2064 ft | 100 kts | 26° |
| 2026-04-22 18:15 | 52.36302 | 13.05518 | 2064 ft | 102 kts | 26° |
| 2026-04-22 18:15 | 52.36877 | 13.06191 | 2059 ft | 101 kts | 26° |
| 2026-04-22 18:16 | 52.37448 | 13.06852 | 2057 ft | 100 kts | 26° |
| 2026-04-22 18:16 | 52.38007 | 13.07505 | 2056 ft | 100 kts | 26° |
| 2026-04-22 18:16 | 52.38572 | 13.08168 | 2053 ft | 100 kts | 26° |
| 2026-04-22 18:16 | 52.39144 | 13.08833 | 2055 ft | 102 kts | 27° |
| 2026-04-22 18:17 | 52.39720 | 13.09506 | 2058 ft | 101 kts | 26° |
| 2026-04-22 18:17 | 52.40284 | 13.10165 | 2057 ft | 99 kts | 25° |
| 2026-04-22 18:17 | 52.40838 | 13.10815 | 2060 ft | 98 kts | 26° |
| 2026-04-22 18:17 | 52.41392 | 13.11456 | 2058 ft | 97 kts | 26° |
| 2026-04-22 18:18 | 52.41949 | 13.12104 | 2060 ft | 100 kts | 26° |
| 2026-04-22 18:18 | 52.42525 | 13.12777 | 2073 ft | 103 kts | 27° |
| 2026-04-22 18:18 | 52.43115 | 13.13464 | 2078 ft | 105 kts | 27° |
| 2026-04-22 18:18 | 52.43705 | 13.14157 | 2073 ft | 104 kts | 27° |
| 2026-04-22 18:19 | 52.44286 | 13.14839 | 2069 ft | 101 kts | 27° |
| 2026-04-22 18:19 | 52.44857 | 13.15508 | 2066 ft | 100 kts | 26° |
| 2026-04-22 18:19 | 52.45417 | 13.16164 | 2063 ft | 100 kts | 26° |
| 2026-04-22 18:19 | 52.45979 | 13.16821 | 2062 ft | 99 kts | 26° |
| 2026-04-22 18:20 | 52.46542 | 13.17476 | 2063 ft | 100 kts | 26° |
| 2026-04-22 18:20 | 52.47107 | 13.18141 | 2063 ft | 99 kts | 27° |
| 2026-04-22 18:20 | 52.47671 | 13.18800 | 2068 ft | 100 kts | 26° |
| 2026-04-22 18:20 | 52.48237 | 13.19463 | 2068 ft | 100 kts | 26° |
| 2026-04-22 18:21 | 52.48809 | 13.20133 | 2073 ft | 101 kts | 27° |
| 2026-04-22 18:21 | 52.49382 | 13.20807 | 2066 ft | 101 kts | 27° |
| 2026-04-22 18:21 | 52.49954 | 13.21479 | 2077 ft | 101 kts | 26° |
| 2026-04-22 18:21 | 52.50525 | 13.22149 | 2078 ft | 100 kts | 26° |
| 2026-04-22 18:22 | 52.51093 | 13.22814 | 2072 ft | 100 kts | 26° |
| 2026-04-22 18:22 | 52.51662 | 13.23487 | 2068 ft | 100 kts | 25° |
| 2026-04-22 18:22 | 52.52232 | 13.24156 | 2071 ft | 101 kts | 25° |
| 2026-04-22 18:22 | 52.52801 | 13.24820 | 2066 ft | 102 kts | 25° |
| 2026-04-22 18:23 | 52.53374 | 13.25492 | 2067 ft | 101 kts | 25° |
| 2026-04-22 18:23 | 52.53941 | 13.26161 | 2063 ft | 99 kts | 25° |
| 2026-04-22 18:23 | 52.54498 | 13.26821 | 2061 ft | 98 kts | 25° |
| 2026-04-22 18:24 | 52.55602 | 13.28116 | 2062 ft | 97 kts | 25° |
| 2026-04-22 18:24 | 52.56157 | 13.28775 | 2064 ft | 99 kts | 26° |
| 2026-04-22 18:24 | 52.57189 | 13.30373 | 2063 ft | 102 kts | 33° |
| 2026-04-22 18:25 | 52.57698 | 13.31163 | 2063 ft | 101 kts | 33° |
| 2026-04-22 18:25 | 52.58207 | 13.31955 | 2061 ft | 100 kts | 33° |
| 2026-04-22 18:25 | 52.58710 | 13.32738 | 2059 ft | 99 kts | 31° |
| 2026-04-22 18:26 | 52.59712 | 13.34290 | 2058 ft | 99 kts | 32° |
| 2026-04-22 18:26 | 52.60218 | 13.35073 | 2058 ft | 100 kts | 32° |
| 2026-04-22 18:26 | 52.60723 | 13.35865 | 2060 ft | 100 kts | 32° |
| 2026-04-22 18:26 | 52.61230 | 13.36647 | 2060 ft | 100 kts | 32° |
| 2026-04-22 18:27 | 52.61735 | 13.37436 | 2060 ft | 100 kts | 32° |
| 2026-04-22 18:27 | 52.62234 | 13.38208 | 2062 ft | 100 kts | 33° |
| 2026-04-22 18:27 | 52.62743 | 13.39001 | 2062 ft | 101 kts | 33° |
| 2026-04-22 18:27 | 52.63254 | 13.39801 | 2061 ft | 102 kts | 33° |
| 2026-04-22 18:28 | 52.63773 | 13.40605 | 2055 ft | 102 kts | 33° |
| 2026-04-22 18:28 | 52.64270 | 13.41385 | 2062 ft | 97 kts | 31° |
| 2026-04-22 18:28 | 52.64761 | 13.42148 | 2061 ft | 97 kts | 32° |
| 2026-04-22 18:28 | 52.65253 | 13.42911 | 2061 ft | 97 kts | 33° |
| 2026-04-22 18:29 | 52.65738 | 13.43671 | 2064 ft | 98 kts | 32° |
| 2026-04-22 18:29 | 52.66242 | 13.44457 | 2065 ft | 101 kts | 32° |
| 2026-04-22 18:29 | 52.66752 | 13.45254 | 2068 ft | 102 kts | 32° |
| 2026-04-22 18:29 | 52.67266 | 13.46057 | 2069 ft | 101 kts | 32° |
| 2026-04-22 18:30 | 52.67777 | 13.46853 | 2069 ft | 101 kts | 32° |
| 2026-04-22 18:30 | 52.68796 | 13.48444 | 2063 ft | 101 kts | 33° |
| 2026-04-22 18:30 | 52.69307 | 13.49245 | 2065 ft | 101 kts | 33° |
| 2026-04-22 18:31 | 52.69815 | 13.50032 | 2066 ft | 102 kts | 33° |
| 2026-04-22 18:31 | 52.70328 | 13.50840 | 2069 ft | 102 kts | 33° |
| 2026-04-22 18:31 | 52.70842 | 13.51644 | 2066 ft | 102 kts | 33° |
| 2026-04-22 18:31 | 52.71355 | 13.52447 | 2070 ft | 102 kts | 32° |
| 2026-04-22 18:32 | 52.71702 | 13.52992 | 2067 ft | 102 kts | 33° |
| 2026-04-22 18:32 | 52.72382 | 13.54053 | 2068 ft | 102 kts | 32° |
| 2026-04-22 18:32 | 52.72895 | 13.54860 | 2067 ft | 102 kts | 33° |
| 2026-04-22 18:32 | 52.73409 | 13.55663 | 2067 ft | 101 kts | 34° |
| 2026-04-22 18:33 | 52.73920 | 13.56463 | 2067 ft | 101 kts | 33° |
| 2026-04-22 18:33 | 52.74434 | 13.57271 | 2070 ft | 103 kts | 33° |
| 2026-04-22 18:33 | 52.74951 | 13.58085 | 2072 ft | 103 kts | 32° |
| 2026-04-22 18:33 | 52.75473 | 13.58903 | 2075 ft | 104 kts | 33° |
| 2026-04-22 18:34 | 52.75994 | 13.59719 | 2067 ft | 103 kts | 33° |
| 2026-04-22 18:34 | 52.76333 | 13.60255 | 2061 ft | 101 kts | 33° |
| 2026-04-22 18:34 | 52.76842 | 13.61052 | 2059 ft | 101 kts | 33° |
| 2026-04-22 18:34 | 52.77349 | 13.61849 | 2057 ft | 101 kts | 33° |
| 2026-04-22 18:35 | 52.77858 | 13.62654 | 2055 ft | 101 kts | 32° |
| 2026-04-22 18:35 | 52.78371 | 13.63456 | 2054 ft | 101 kts | 32° |
| 2026-04-22 18:35 | 52.78874 | 13.64265 | 2040 ft | 99 kts | 35° |
| 2026-04-22 18:35 | 52.79310 | 13.65210 | 1727 ft | 111 kts | 46° |
| 2026-04-22 18:36 | 52.79661 | 13.66333 | 1546 ft | 109 kts | 56° |
| 2026-04-22 18:36 | 52.79990 | 13.67412 | 1265 ft | 103 kts | 46° |
| 2026-04-22 18:36 | 52.80387 | 13.68424 | 1016 ft | 100 kts | 49° |
| 2026-04-22 18:36 | 52.80720 | 13.69392 | 887 ft | 97 kts | 57° |
| 2026-04-22 18:37 | 52.80891 | 13.70431 | 930 ft | 93 kts | 76° |
| 2026-04-22 18:37 | 52.80843 | 13.71506 | 935 ft | 91 kts | 89° |
| 2026-04-22 18:37 | 52.80782 | 13.72527 | 888 ft | 90 kts | 90° |
| 2026-04-22 18:37 | 52.80753 | 13.73544 | 837 ft | 82 kts | 69° |
| 2026-04-22 18:38 | 52.81116 | 13.74069 | 715 ft | 67 kts | 359° |
| 2026-04-22 18:38 | 52.81619 | 13.74033 | 656 ft | 77 kts | 351° |
| 2026-04-22 18:38 | 52.82099 | 13.73827 | 645 ft | 72 kts | 314° |
| 2026-04-22 18:39 | 52.82400 | 13.72302 | 387 ft | 63 kts | 277° |
| 2026-04-22 18:39 | 52.82479 | 13.71568 | 176 ft | 65 kts | 282° |
| 2026-04-22 18:39 | 52.82555 | 13.70892 | 116 ft | 49 kts | 281° |
| 2026-04-22 18:39 | 52.82605 | 13.70425 | 110 ft | 37 kts | 279° |
| 2026-04-22 18:40 | 52.82632 | 13.70125 | 105 ft | 10 kts | 278° |
| 2026-04-22 18:40 | 52.82649 | 13.70060 | 106 ft | 5 kts | 30° |
| 2026-04-22 18:40 | 52.82640 | 13.70156 | 105 ft | 13 kts | 106° |
| 2026-04-22 18:40 | 52.82616 | 13.70349 | 107 ft | 20 kts | 101° |
| 2026-04-22 18:41 | 52.82589 | 13.70594 | 113 ft | 24 kts | 99° |
| 2026-04-22 18:41 | 52.82556 | 13.70903 | 114 ft | 29 kts | 100° |
| 2026-04-22 18:41 | 52.82528 | 13.71182 | 113 ft | 14 kts | 85° |
| 2026-04-22 18:41 | 52.82605 | 13.71240 | 113 ft | 12 kts | 10° |
| 2026-04-22 18:42 | 52.82683 | 13.71231 | 113 ft | 12 kts | 310° |
| 2026-04-22 18:42 | 52.82731 | 13.71182 | 113 ft | 0 kts | 15° |